sensor_id;sensor_type;location;lat;lon;timestamp;temperature;humidity
33865;DHT22;20159;51.072;13.526;2022-07-22T00:01:01;20.30;74.10
33865;DHT22;20159;51.072;13.526;2022-07-22T00:03:27;20.30;74.10
33865;DHT22;20159;51.072;13.526;2022-07-22T00:05:52;20.40;74.20
33865;DHT22;20159;51.072;13.526;2022-07-22T00:08:18;20.30;74.10
33865;DHT22;20159;51.072;13.526;2022-07-22T00:10:43;20.40;74.10
33865;DHT22;20159;51.072;13.526;2022-07-22T00:13:09;20.40;74.10
33865;DHT22;20159;51.072;13.526;2022-07-22T00:15:35;20.40;73.90
33865;DHT22;20159;51.072;13.526;2022-07-22T00:18:00;20.40;73.70
33865;DHT22;20159;51.072;13.526;2022-07-22T00:20:26;20.40;73.80
33865;DHT22;20159;51.072;13.526;2022-07-22T00:22:52;20.40;73.70
33865;DHT22;20159;51.072;13.526;2022-07-22T00:25:17;20.40;73.40
33865;DHT22;20159;51.072;13.526;2022-07-22T00:27:43;20.40;73.30
33865;DHT22;20159;51.072;13.526;2022-07-22T00:30:08;20.40;73.20
33865;DHT22;20159;51.072;13.526;2022-07-22T00:32:34;20.50;73.20
33865;DHT22;20159;51.072;13.526;2022-07-22T00:35:00;20.50;72.90
33865;DHT22;20159;51.072;13.526;2022-07-22T00:37:25;20.60;72.80
33865;DHT22;20159;51.072;13.526;2022-07-22T00:39:51;20.60;72.80
33865;DHT22;20159;51.072;13.526;2022-07-22T00:42:17;20.70;72.60
33865;DHT22;20159;51.072;13.526;2022-07-22T00:44:43;20.70;72.40
33865;DHT22;20159;51.072;13.526;2022-07-22T00:47:09;20.80;72.30
33865;DHT22;20159;51.072;13.526;2022-07-22T00:49:35;20.80;72.00
33865;DHT22;20159;51.072;13.526;2022-07-22T00:52:00;20.80;71.80
33865;DHT22;20159;51.072;13.526;2022-07-22T00:54:26;20.90;71.70
33865;DHT22;20159;51.072;13.526;2022-07-22T00:56:52;20.80;71.60
33865;DHT22;20159;51.072;13.526;2022-07-22T00:59:19;20.90;71.50
33865;DHT22;20159;51.072;13.526;2022-07-22T01:01:44;20.90;71.40
33865;DHT22;20159;51.072;13.526;2022-07-22T01:04:10;20.90;71.20
33865;DHT22;20159;51.072;13.526;2022-07-22T01:06:36;20.90;71.30
33865;DHT22;20159;51.072;13.526;2022-07-22T01:09:03;20.90;71.10
33865;DHT22;20159;51.072;13.526;2022-07-22T01:11:29;20.90;71.10
33865;DHT22;20159;51.072;13.526;2022-07-22T01:13:55;20.90;71.10
33865;DHT22;20159;51.072;13.526;2022-07-22T01:16:21;20.90;71.10
33865;DHT22;20159;51.072;13.526;2022-07-22T01:18:47;20.90;71.10
33865;DHT22;20159;51.072;13.526;2022-07-22T01:21:13;21.50;71.60
33865;DHT22;20159;51.072;13.526;2022-07-22T01:23:40;20.80;71.30
33865;DHT22;20159;51.072;13.526;2022-07-22T01:26:05;20.80;71.20
33865;DHT22;20159;51.072;13.526;2022-07-22T01:28:32;20.80;71.30
33865;DHT22;20159;51.072;13.526;2022-07-22T01:30:58;20.80;71.40
33865;DHT22;20159;51.072;13.526;2022-07-22T01:33:24;20.80;71.30
33865;DHT22;20159;51.072;13.526;2022-07-22T01:35:51;20.70;71.40
33865;DHT22;20159;51.072;13.526;2022-07-22T01:38:17;20.80;71.50
33865;DHT22;20159;51.072;13.526;2022-07-22T01:40:43;20.70;71.40
33865;DHT22;20159;51.072;13.526;2022-07-22T01:43:09;20.70;71.60
33865;DHT22;20159;51.072;13.526;2022-07-22T01:45:35;20.70;71.50
33865;DHT22;20159;51.072;13.526;2022-07-22T01:48:01;20.70;71.60
33865;DHT22;20159;51.072;13.526;2022-07-22T01:50:28;20.70;71.70
33865;DHT22;20159;51.072;13.526;2022-07-22T01:52:53;20.70;71.90
33865;DHT22;20159;51.072;13.526;2022-07-22T01:55:19;20.60;71.80
33865;DHT22;20159;51.072;13.526;2022-07-22T01:57:44;20.60;71.90
33865;DHT22;20159;51.072;13.526;2022-07-22T02:00:11;20.60;72.10
33865;DHT22;20159;51.072;13.526;2022-07-22T02:02:37;20.60;72.20
33865;DHT22;20159;51.072;13.526;2022-07-22T02:05:06;20.50;72.20
33865;DHT22;20159;51.072;13.526;2022-07-22T02:07:32;20.50;72.40
33865;DHT22;20159;51.072;13.526;2022-07-22T02:09:58;20.50;72.50
33865;DHT22;20159;51.072;13.526;2022-07-22T02:12:24;20.50;72.70
33865;DHT22;20159;51.072;13.526;2022-07-22T02:14:50;20.50;72.70
33865;DHT22;20159;51.072;13.526;2022-07-22T02:17:15;20.80;72.90
33865;DHT22;20159;51.072;13.526;2022-07-22T02:19:41;20.50;72.80
33865;DHT22;20159;51.072;13.526;2022-07-22T02:22:07;20.50;73.00
33865;DHT22;20159;51.072;13.526;2022-07-22T02:24:33;20.50;73.00
33865;DHT22;20159;51.072;13.526;2022-07-22T02:26:58;20.50;73.30
33865;DHT22;20159;51.072;13.526;2022-07-22T02:29:24;20.60;73.30
33865;DHT22;20159;51.072;13.526;2022-07-22T02:31:51;20.60;73.30
33865;DHT22;20159;51.072;13.526;2022-07-22T02:34:17;20.60;73.40
33865;DHT22;20159;51.072;13.526;2022-07-22T02:36:42;20.50;73.40
33865;DHT22;20159;51.072;13.526;2022-07-22T02:39:08;20.60;73.50
33865;DHT22;20159;51.072;13.526;2022-07-22T02:41:33;20.60;73.50
33865;DHT22;20159;51.072;13.526;2022-07-22T02:43:59;20.60;73.40
33865;DHT22;20159;51.072;13.526;2022-07-22T02:46:26;20.60;73.50
33865;DHT22;20159;51.072;13.526;2022-07-22T02:48:55;20.60;73.50
33865;DHT22;20159;51.072;13.526;2022-07-22T02:51:21;20.60;73.50
33865;DHT22;20159;51.072;13.526;2022-07-22T02:53:47;20.60;73.60
33865;DHT22;20159;51.072;13.526;2022-07-22T02:56:13;20.60;73.60
33865;DHT22;20159;51.072;13.526;2022-07-22T02:58:39;20.60;73.60
33865;DHT22;20159;51.072;13.526;2022-07-22T03:01:05;20.50;73.70
33865;DHT22;20159;51.072;13.526;2022-07-22T03:03:31;20.60;73.70
33865;DHT22;20159;51.072;13.526;2022-07-22T03:05:56;20.50;73.70
33865;DHT22;20159;51.072;13.526;2022-07-22T03:08:22;20.50;73.70
33865;DHT22;20159;51.072;13.526;2022-07-22T03:10:48;20.50;73.80
33865;DHT22;20159;51.072;13.526;2022-07-22T03:13:13;20.50;73.80
33865;DHT22;20159;51.072;13.526;2022-07-22T03:15:39;20.50;73.80
33865;DHT22;20159;51.072;13.526;2022-07-22T03:18:05;20.50;73.80
33865;DHT22;20159;51.072;13.526;2022-07-22T03:20:30;20.40;73.80
33865;DHT22;20159;51.072;13.526;2022-07-22T03:22:56;20.40;73.90
33865;DHT22;20159;51.072;13.526;2022-07-22T03:25:21;20.40;73.90
33865;DHT22;20159;51.072;13.526;2022-07-22T03:27:47;20.40;74.00
33865;DHT22;20159;51.072;13.526;2022-07-22T03:30:12;20.30;74.00
33865;DHT22;20159;51.072;13.526;2022-07-22T03:32:38;20.30;74.10
33865;DHT22;20159;51.072;13.526;2022-07-22T03:35:04;20.30;74.20
33865;DHT22;20159;51.072;13.526;2022-07-22T03:37:30;20.30;74.20
33865;DHT22;20159;51.072;13.526;2022-07-22T03:39:56;20.20;74.20
33865;DHT22;20159;51.072;13.526;2022-07-22T03:42:21;20.20;74.30
33865;DHT22;20159;51.072;13.526;2022-07-22T03:44:47;20.20;74.40
33865;DHT22;20159;51.072;13.526;2022-07-22T03:47:17;20.20;74.60
33865;DHT22;20159;51.072;13.526;2022-07-22T03:49:43;20.20;75.10
33865;DHT22;20159;51.072;13.526;2022-07-22T03:52:08;20.10;75.00
33865;DHT22;20159;51.072;13.526;2022-07-22T03:54:34;20.10;75.20
33865;DHT22;20159;51.072;13.526;2022-07-22T03:56:59;20.10;75.30
33865;DHT22;20159;51.072;13.526;2022-07-22T03:59:25;20.10;75.30
33865;DHT22;20159;51.072;13.526;2022-07-22T04:01:50;20.10;75.40
33865;DHT22;20159;51.072;13.526;2022-07-22T04:04:16;20.20;75.60
33865;DHT22;20159;51.072;13.526;2022-07-22T04:06:42;20.20;75.70
33865;DHT22;20159;51.072;13.526;2022-07-22T04:09:07;20.20;75.90
33865;DHT22;20159;51.072;13.526;2022-07-22T04:11:33;20.20;76.00
33865;DHT22;20159;51.072;13.526;2022-07-22T04:13:58;20.20;76.00
33865;DHT22;20159;51.072;13.526;2022-07-22T04:16:24;20.20;76.10
33865;DHT22;20159;51.072;13.526;2022-07-22T04:18:49;20.30;76.30
33865;DHT22;20159;51.072;13.526;2022-07-22T04:21:15;20.40;76.50
33865;DHT22;20159;51.072;13.526;2022-07-22T04:23:40;20.40;76.60
33865;DHT22;20159;51.072;13.526;2022-07-22T04:26:06;20.50;76.60
33865;DHT22;20159;51.072;13.526;2022-07-22T04:28:35;20.60;76.60
33865;DHT22;20159;51.072;13.526;2022-07-22T04:31:02;20.70;76.90
33865;DHT22;20159;51.072;13.526;2022-07-22T04:33:28;20.90;76.90
33865;DHT22;20159;51.072;13.526;2022-07-22T04:35:54;21.10;76.70
33865;DHT22;20159;51.072;13.526;2022-07-22T04:38:19;21.30;76.60
33865;DHT22;20159;51.072;13.526;2022-07-22T04:40:46;21.40;76.10
33865;DHT22;20159;51.072;13.526;2022-07-22T04:43:11;21.60;75.70
33865;DHT22;20159;51.072;13.526;2022-07-22T04:45:37;21.80;75.40
33865;DHT22;20159;51.072;13.526;2022-07-22T04:48:02;22.10;74.80
33865;DHT22;20159;51.072;13.526;2022-07-22T04:50:28;22.20;74.40
33865;DHT22;20159;51.072;13.526;2022-07-22T04:52:54;22.40;74.10
33865;DHT22;20159;51.072;13.526;2022-07-22T04:55:19;22.50;73.60
33865;DHT22;20159;51.072;13.526;2022-07-22T04:57:45;22.70;73.50
33865;DHT22;20159;51.072;13.526;2022-07-22T05:00:11;22.90;73.10
33865;DHT22;20159;51.072;13.526;2022-07-22T05:02:37;23.00;72.60
33865;DHT22;20159;51.072;13.526;2022-07-22T05:05:02;23.20;72.50
33865;DHT22;20159;51.072;13.526;2022-07-22T05:07:28;23.40;72.30
33865;DHT22;20159;51.072;13.526;2022-07-22T05:09:54;23.60;72.00
33865;DHT22;20159;51.072;13.526;2022-07-22T05:12:19;23.80;71.40
33865;DHT22;20159;51.072;13.526;2022-07-22T05:14:45;23.90;70.50
33865;DHT22;20159;51.072;13.526;2022-07-22T05:17:11;24.10;70.10
33865;DHT22;20159;51.072;13.526;2022-07-22T05:19:38;24.10;69.80
33865;DHT22;20159;51.072;13.526;2022-07-22T05:22:05;24.20;69.50
33865;DHT22;20159;51.072;13.526;2022-07-22T05:24:31;24.80;69.80
33865;DHT22;20159;51.072;13.526;2022-07-22T05:26:56;24.40;69.80
33865;DHT22;20159;51.072;13.526;2022-07-22T05:29:22;24.60;69.60
33865;DHT22;20159;51.072;13.526;2022-07-22T05:31:48;24.70;69.80
33865;DHT22;20159;51.072;13.526;2022-07-22T05:34:14;24.90;69.50
33865;DHT22;20159;51.072;13.526;2022-07-22T05:36:40;25.20;68.60
33865;DHT22;20159;51.072;13.526;2022-07-22T05:39:05;25.30;68.60
33865;DHT22;20159;51.072;13.526;2022-07-22T05:41:31;25.50;69.30
33865;DHT22;20159;51.072;13.526;2022-07-22T05:43:56;25.80;67.40
33865;DHT22;20159;51.072;13.526;2022-07-22T05:46:22;26.00;67.50
33865;DHT22;20159;51.072;13.526;2022-07-22T05:48:47;26.30;67.30
33865;DHT22;20159;51.072;13.526;2022-07-22T05:51:14;26.50;66.40
33865;DHT22;20159;51.072;13.526;2022-07-22T05:53:40;26.70;66.10
33865;DHT22;20159;51.072;13.526;2022-07-22T05:56:07;27.00;66.10
33865;DHT22;20159;51.072;13.526;2022-07-22T05:58:34;27.30;65.10
33865;DHT22;20159;51.072;13.526;2022-07-22T06:00:59;27.50;64.90
33865;DHT22;20159;51.072;13.526;2022-07-22T06:03:25;27.80;64.10
33865;DHT22;20159;51.072;13.526;2022-07-22T06:05:51;28.00;63.10
33865;DHT22;20159;51.072;13.526;2022-07-22T06:08:17;28.20;63.40
33865;DHT22;20159;51.072;13.526;2022-07-22T06:10:43;28.50;63.30
33865;DHT22;20159;51.072;13.526;2022-07-22T06:13:09;28.70;62.60
33865;DHT22;20159;51.072;13.526;2022-07-22T06:15:34;29.00;62.10
33865;DHT22;20159;51.072;13.526;2022-07-22T06:18:00;29.20;60.90
33865;DHT22;20159;51.072;13.526;2022-07-22T06:20:25;29.40;59.90
33865;DHT22;20159;51.072;13.526;2022-07-22T06:22:51;29.60;59.50
33865;DHT22;20159;51.072;13.526;2022-07-22T06:25:17;29.80;59.70
33865;DHT22;20159;51.072;13.526;2022-07-22T06:27:43;29.90;58.90
33865;DHT22;20159;51.072;13.526;2022-07-22T06:30:09;30.20;58.40
33865;DHT22;20159;51.072;13.526;2022-07-22T06:32:35;30.30;57.70
33865;DHT22;20159;51.072;13.526;2022-07-22T06:35:02;30.50;57.70
33865;DHT22;20159;51.072;13.526;2022-07-22T06:37:27;30.60;57.60
33865;DHT22;20159;51.072;13.526;2022-07-22T06:39:53;30.90;57.30
33865;DHT22;20159;51.072;13.526;2022-07-22T06:42:19;31.10;56.40
33865;DHT22;20159;51.072;13.526;2022-07-22T06:44:44;31.20;56.10
33865;DHT22;20159;51.072;13.526;2022-07-22T06:47:10;31.40;55.50
33865;DHT22;20159;51.072;13.526;2022-07-22T06:49:35;31.60;55.40
33865;DHT22;20159;51.072;13.526;2022-07-22T06:52:01;31.70;54.90
33865;DHT22;20159;51.072;13.526;2022-07-22T06:54:27;31.90;54.40
33865;DHT22;20159;51.072;13.526;2022-07-22T06:56:53;32.20;54.70
33865;DHT22;20159;51.072;13.526;2022-07-22T06:59:18;32.40;54.80
33865;DHT22;20159;51.072;13.526;2022-07-22T07:01:44;32.60;53.50
33865;DHT22;20159;51.072;13.526;2022-07-22T07:04:09;32.80;53.10
33865;DHT22;20159;51.072;13.526;2022-07-22T07:06:35;33.00;52.20
33865;DHT22;20159;51.072;13.526;2022-07-22T07:09:01;33.30;52.20
33865;DHT22;20159;51.072;13.526;2022-07-22T07:11:27;33.40;50.90
33865;DHT22;20159;51.072;13.526;2022-07-22T07:13:52;33.50;50.20
33865;DHT22;20159;51.072;13.526;2022-07-22T07:16:18;33.70;50.00
33865;DHT22;20159;51.072;13.526;2022-07-22T07:18:44;33.80;50.10
33865;DHT22;20159;51.072;13.526;2022-07-22T07:21:09;33.80;49.30
33865;DHT22;20159;51.072;13.526;2022-07-22T07:23:35;34.00;49.40
33865;DHT22;20159;51.072;13.526;2022-07-22T07:26:01;34.10;49.90
33865;DHT22;20159;51.072;13.526;2022-07-22T07:28:27;34.30;49.50
33865;DHT22;20159;51.072;13.526;2022-07-22T07:30:52;34.40;48.80
33865;DHT22;20159;51.072;13.526;2022-07-22T07:33:18;34.60;48.70
33865;DHT22;20159;51.072;13.526;2022-07-22T07:35:44;34.70;47.50
33865;DHT22;20159;51.072;13.526;2022-07-22T07:38:10;34.80;46.90
33865;DHT22;20159;51.072;13.526;2022-07-22T07:40:35;34.90;46.50
33865;DHT22;20159;51.072;13.526;2022-07-22T07:43:01;34.90;46.10
33865;DHT22;20159;51.072;13.526;2022-07-22T07:45:27;34.80;45.90
33865;DHT22;20159;51.072;13.526;2022-07-22T07:47:52;34.70;45.60
33865;DHT22;20159;51.072;13.526;2022-07-22T07:50:18;34.50;45.90
33865;DHT22;20159;51.072;13.526;2022-07-22T07:52:45;34.50;46.10
33865;DHT22;20159;51.072;13.526;2022-07-22T07:55:14;34.40;47.10
33865;DHT22;20159;51.072;13.526;2022-07-22T07:57:40;34.40;46.20
33865;DHT22;20159;51.072;13.526;2022-07-22T08:00:09;34.40;45.60
33865;DHT22;20159;51.072;13.526;2022-07-22T08:02:36;34.40;45.80
33865;DHT22;20159;51.072;13.526;2022-07-22T08:05:02;34.30;45.90
33865;DHT22;20159;51.072;13.526;2022-07-22T08:07:28;34.30;45.90
33865;DHT22;20159;51.072;13.526;2022-07-22T08:09:54;34.30;45.60
33865;DHT22;20159;51.072;13.526;2022-07-22T08:12:20;34.10;45.70
33865;DHT22;20159;51.072;13.526;2022-07-22T08:14:46;34.10;45.20
33865;DHT22;20159;51.072;13.526;2022-07-22T08:17:12;34.10;45.20
33865;DHT22;20159;51.072;13.526;2022-07-22T08:19:37;34.00;45.20
33865;DHT22;20159;51.072;13.526;2022-07-22T08:22:03;33.80;45.00
33865;DHT22;20159;51.072;13.526;2022-07-22T08:24:29;33.80;44.90
33865;DHT22;20159;51.072;13.526;2022-07-22T08:26:54;33.70;45.30
33865;DHT22;20159;51.072;13.526;2022-07-22T08:29:20;33.70;45.80
33865;DHT22;20159;51.072;13.526;2022-07-22T08:31:45;33.70;46.00
33865;DHT22;20159;51.072;13.526;2022-07-22T08:34:12;33.80;46.40
33865;DHT22;20159;51.072;13.526;2022-07-22T08:36:38;33.90;46.60
33865;DHT22;20159;51.072;13.526;2022-07-22T08:39:04;34.10;46.70
33865;DHT22;20159;51.072;13.526;2022-07-22T08:41:35;34.30;46.50
33865;DHT22;20159;51.072;13.526;2022-07-22T08:44:02;34.50;46.00
33865;DHT22;20159;51.072;13.526;2022-07-22T08:46:28;34.70;45.60
33865;DHT22;20159;51.072;13.526;2022-07-22T08:48:54;34.80;45.40
33865;DHT22;20159;51.072;13.526;2022-07-22T08:51:20;35.00;45.10
33865;DHT22;20159;51.072;13.526;2022-07-22T08:53:46;35.00;44.30
33865;DHT22;20159;51.072;13.526;2022-07-22T08:56:13;35.00;43.70
33865;DHT22;20159;51.072;13.526;2022-07-22T08:58:39;34.90;43.40
33865;DHT22;20159;51.072;13.526;2022-07-22T09:01:16;34.80;43.50
33865;DHT22;20159;51.072;13.526;2022-07-22T09:03:46;34.50;42.70
33865;DHT22;20159;51.072;13.526;2022-07-22T09:06:12;34.40;42.90
33865;DHT22;20159;51.072;13.526;2022-07-22T09:08:59;34.30;43.70
33865;DHT22;20159;51.072;13.526;2022-07-22T09:11:27;34.30;43.80
33865;DHT22;20159;51.072;13.526;2022-07-22T09:13:55;34.40;45.00
33865;DHT22;20159;51.072;13.526;2022-07-22T09:16:44;34.50;43.80
33865;DHT22;20159;51.072;13.526;2022-07-22T09:19:10;34.60;43.10
33865;DHT22;20159;51.072;13.526;2022-07-22T09:21:40;34.60;43.70
33865;DHT22;20159;51.072;13.526;2022-07-22T09:24:06;34.60;42.20
33865;DHT22;20159;51.072;13.526;2022-07-22T09:26:37;34.60;42.40
33865;DHT22;20159;51.072;13.526;2022-07-22T09:29:04;34.40;41.30
33865;DHT22;20159;51.072;13.526;2022-07-22T09:31:36;34.30;41.60
33865;DHT22;20159;51.072;13.526;2022-07-22T09:34:04;34.00;41.70
33865;DHT22;20159;51.072;13.526;2022-07-22T09:36:30;33.80;42.10
33865;DHT22;20159;51.072;13.526;2022-07-22T09:38:56;33.70;43.10
33865;DHT22;20159;51.072;13.526;2022-07-22T09:41:22;33.50;42.90
33865;DHT22;20159;51.072;13.526;2022-07-22T09:43:48;33.40;43.10
33865;DHT22;20159;51.072;13.526;2022-07-22T09:46:15;33.40;42.20
33865;DHT22;20159;51.072;13.526;2022-07-22T09:48:41;33.20;42.80
33865;DHT22;20159;51.072;13.526;2022-07-22T09:51:07;33.20;43.10
33865;DHT22;20159;51.072;13.526;2022-07-22T09:53:33;33.30;43.40
33865;DHT22;20159;51.072;13.526;2022-07-22T09:56:01;33.40;43.90
33865;DHT22;20159;51.072;13.526;2022-07-22T09:58:28;33.50;43.70
33865;DHT22;20159;51.072;13.526;2022-07-22T10:00:55;33.70;43.10
33865;DHT22;20159;51.072;13.526;2022-07-22T10:03:34;33.80;42.50
33865;DHT22;20159;51.072;13.526;2022-07-22T10:06:03;33.80;42.00
33865;DHT22;20159;51.072;13.526;2022-07-22T10:08:31;33.80;42.00
33865;DHT22;20159;51.072;13.526;2022-07-22T10:11:04;33.70;42.10
33865;DHT22;20159;51.072;13.526;2022-07-22T10:13:30;33.70;41.70
33865;DHT22;20159;51.072;13.526;2022-07-22T10:15:57;33.60;42.10
33865;DHT22;20159;51.072;13.526;2022-07-22T10:18:24;33.60;42.70
33865;DHT22;20159;51.072;13.526;2022-07-22T10:21:12;33.50;42.80
33865;DHT22;20159;51.072;13.526;2022-07-22T10:24:14;33.60;42.80
33865;DHT22;20159;51.072;13.526;2022-07-22T10:26:52;33.60;41.60
33865;DHT22;20159;51.072;13.526;2022-07-22T10:45:32;34.60;42.60
33865;DHT22;20159;51.072;13.526;2022-07-22T10:48:00;34.80;41.70
33865;DHT22;20159;51.072;13.526;2022-07-22T10:53:04;35.00;41.40
33865;DHT22;20159;51.072;13.526;2022-07-22T10:55:29;35.10;42.50
33865;DHT22;20159;51.072;13.526;2022-07-22T10:57:55;35.20;41.50
33865;DHT22;20159;51.072;13.526;2022-07-22T11:00:21;35.20;41.00
33865;DHT22;20159;51.072;13.526;2022-07-22T11:02:47;35.30;40.90
33865;DHT22;20159;51.072;13.526;2022-07-22T11:05:14;35.40;41.10
33865;DHT22;20159;51.072;13.526;2022-07-22T11:07:49;35.40;40.70
33865;DHT22;20159;51.072;13.526;2022-07-22T11:10:17;35.50;41.40
33865;DHT22;20159;51.072;13.526;2022-07-22T11:12:43;35.60;40.40
33865;DHT22;20159;51.072;13.526;2022-07-22T11:15:09;35.60;40.30
33865;DHT22;20159;51.072;13.526;2022-07-22T11:17:36;35.70;40.00
33865;DHT22;20159;51.072;13.526;2022-07-22T11:20:10;35.70;40.00
33865;DHT22;20159;51.072;13.526;2022-07-22T11:22:36;35.80;40.00
33865;DHT22;20159;51.072;13.526;2022-07-22T11:25:09;35.90;39.60
33865;DHT22;20159;51.072;13.526;2022-07-22T11:27:35;36.00;40.20
33865;DHT22;20159;51.072;13.526;2022-07-22T11:30:02;36.10;40.10
33865;DHT22;20159;51.072;13.526;2022-07-22T11:32:29;36.20;39.80
33865;DHT22;20159;51.072;13.526;2022-07-22T11:34:58;36.20;39.00
33865;DHT22;20159;51.072;13.526;2022-07-22T11:37:26;36.30;39.70
33865;DHT22;20159;51.072;13.526;2022-07-22T11:40:00;36.30;38.90
33865;DHT22;20159;51.072;13.526;2022-07-22T11:42:27;36.30;38.50
33865;DHT22;20159;51.072;13.526;2022-07-22T11:44:52;36.30;39.60
33865;DHT22;20159;51.072;13.526;2022-07-22T11:47:18;36.40;39.10
33865;DHT22;20159;51.072;13.526;2022-07-22T11:49:46;36.40;39.60
33865;DHT22;20159;51.072;13.526;2022-07-22T11:52:12;36.50;39.30
33865;DHT22;20159;51.072;13.526;2022-07-22T11:54:39;36.50;39.10
33865;DHT22;20159;51.072;13.526;2022-07-22T11:57:06;36.50;38.80
33865;DHT22;20159;51.072;13.526;2022-07-22T11:59:33;36.60;38.80
33865;DHT22;20159;51.072;13.526;2022-07-22T12:02:00;36.60;38.80
33865;DHT22;20159;51.072;13.526;2022-07-22T12:04:26;36.60;38.70
33865;DHT22;20159;51.072;13.526;2022-07-22T12:06:54;36.60;38.50
33865;DHT22;20159;51.072;13.526;2022-07-22T12:11:50;36.50;38.30
33865;DHT22;20159;51.072;13.526;2022-07-22T12:14:21;36.50;38.30
33865;DHT22;20159;51.072;13.526;2022-07-22T12:17:13;36.50;38.60
33865;DHT22;20159;51.072;13.526;2022-07-22T12:19:40;36.40;38.30
33865;DHT22;20159;51.072;13.526;2022-07-22T12:22:19;36.40;38.30
33865;DHT22;20159;51.072;13.526;2022-07-22T12:24:51;36.40;38.10
33865;DHT22;20159;51.072;13.526;2022-07-22T12:27:22;36.50;37.90
33865;DHT22;20159;51.072;13.526;2022-07-22T12:29:49;36.40;38.00
33865;DHT22;20159;51.072;13.526;2022-07-22T12:32:25;36.40;37.80
33865;DHT22;20159;51.072;13.526;2022-07-22T12:37:24;36.50;38.10
33865;DHT22;20159;51.072;13.526;2022-07-22T12:40:08;36.80;38.30
33865;DHT22;20159;51.072;13.526;2022-07-22T12:42:39;36.70;37.90
33865;DHT22;20159;51.072;13.526;2022-07-22T12:45:07;36.80;38.10
33865;DHT22;20159;51.072;13.526;2022-07-22T12:47:50;36.90;37.60
33865;DHT22;20159;51.072;13.526;2022-07-22T12:50:19;37.00;37.70
33865;DHT22;20159;51.072;13.526;2022-07-22T12:52:46;37.10;39.00
33865;DHT22;20159;51.072;13.526;2022-07-22T12:55:11;37.20;38.00
33865;DHT22;20159;51.072;13.526;2022-07-22T12:57:37;37.30;37.60
33865;DHT22;20159;51.072;13.526;2022-07-22T13:00:03;37.50;37.00
33865;DHT22;20159;51.072;13.526;2022-07-22T13:02:29;37.60;36.80
33865;DHT22;20159;51.072;13.526;2022-07-22T13:04:55;37.70;36.80
33865;DHT22;20159;51.072;13.526;2022-07-22T13:07:20;37.80;36.50
33865;DHT22;20159;51.072;13.526;2022-07-22T13:09:46;38.00;36.60
33865;DHT22;20159;51.072;13.526;2022-07-22T13:12:11;38.10;36.40
33865;DHT22;20159;51.072;13.526;2022-07-22T13:14:37;38.20;36.60
33865;DHT22;20159;51.072;13.526;2022-07-22T13:17:03;38.30;36.50
33865;DHT22;20159;51.072;13.526;2022-07-22T13:19:29;37.70;35.30
33865;DHT22;20159;51.072;13.526;2022-07-22T13:21:54;38.50;36.00
33865;DHT22;20159;51.072;13.526;2022-07-22T13:24:19;38.70;35.60
33865;DHT22;20159;51.072;13.526;2022-07-22T13:26:45;38.70;35.50
33865;DHT22;20159;51.072;13.526;2022-07-22T13:29:10;38.80;35.30
33865;DHT22;20159;51.072;13.526;2022-07-22T13:31:37;38.90;35.50
33865;DHT22;20159;51.072;13.526;2022-07-22T13:34:03;39.00;35.60
33865;DHT22;20159;51.072;13.526;2022-07-22T13:36:28;39.10;35.20
33865;DHT22;20159;51.072;13.526;2022-07-22T13:38:57;39.10;35.00
33865;DHT22;20159;51.072;13.526;2022-07-22T13:41:23;39.20;35.60
33865;DHT22;20159;51.072;13.526;2022-07-22T13:43:48;39.30;35.20
33865;DHT22;20159;51.072;13.526;2022-07-22T13:46:15;39.30;34.70
33865;DHT22;20159;51.072;13.526;2022-07-22T13:48:40;39.40;34.80
33865;DHT22;20159;51.072;13.526;2022-07-22T13:51:06;39.40;34.40
33865;DHT22;20159;51.072;13.526;2022-07-22T13:53:31;39.40;35.00
33865;DHT22;20159;51.072;13.526;2022-07-22T13:55:57;39.40;34.30
33865;DHT22;20159;51.072;13.526;2022-07-22T13:58:22;39.40;34.40
33865;DHT22;20159;51.072;13.526;2022-07-22T14:00:48;39.40;34.10
33865;DHT22;20159;51.072;13.526;2022-07-22T14:03:13;39.40;34.40
33865;DHT22;20159;51.072;13.526;2022-07-22T14:05:39;39.50;34.40
33865;DHT22;20159;51.072;13.526;2022-07-22T14:08:05;39.60;34.30
33865;DHT22;20159;51.072;13.526;2022-07-22T14:10:30;39.60;34.10
33865;DHT22;20159;51.072;13.526;2022-07-22T14:12:56;39.70;33.90
33865;DHT22;20159;51.072;13.526;2022-07-22T14:15:21;39.70;33.40
33865;DHT22;20159;51.072;13.526;2022-07-22T14:17:47;39.80;33.70
33865;DHT22;20159;51.072;13.526;2022-07-22T14:20:12;39.80;33.80
33865;DHT22;20159;51.072;13.526;2022-07-22T14:22:38;39.90;33.90
33865;DHT22;20159;51.072;13.526;2022-07-22T14:25:04;39.90;33.90
33865;DHT22;20159;51.072;13.526;2022-07-22T14:27:30;40.00;34.00
33865;DHT22;20159;51.072;13.526;2022-07-22T14:29:55;40.10;33.30
33865;DHT22;20159;51.072;13.526;2022-07-22T14:32:21;40.20;33.00
33865;DHT22;20159;51.072;13.526;2022-07-22T14:34:46;40.30;33.40
33865;DHT22;20159;51.072;13.526;2022-07-22T14:37:12;40.40;33.00
33865;DHT22;20159;51.072;13.526;2022-07-22T14:39:37;40.60;32.80
33865;DHT22;20159;51.072;13.526;2022-07-22T14:42:03;40.60;32.80
33865;DHT22;20159;51.072;13.526;2022-07-22T14:44:28;40.60;32.70
33865;DHT22;20159;51.072;13.526;2022-07-22T14:46:54;40.70;32.60
33865;DHT22;20159;51.072;13.526;2022-07-22T14:49:19;40.70;32.20
33865;DHT22;20159;51.072;13.526;2022-07-22T14:51:45;40.80;32.30
33865;DHT22;20159;51.072;13.526;2022-07-22T14:54:11;40.80;32.50
33865;DHT22;20159;51.072;13.526;2022-07-22T14:56:37;40.80;32.30
33865;DHT22;20159;51.072;13.526;2022-07-22T14:59:04;40.80;32.50
33865;DHT22;20159;51.072;13.526;2022-07-22T15:01:29;40.90;32.20
33865;DHT22;20159;51.072;13.526;2022-07-22T15:03:55;41.00;32.20
33865;DHT22;20159;51.072;13.526;2022-07-22T15:06:20;41.00;32.40
33865;DHT22;20159;51.072;13.526;2022-07-22T15:08:46;41.00;32.10
33865;DHT22;20159;51.072;13.526;2022-07-22T15:11:11;41.00;32.10
33865;DHT22;20159;51.072;13.526;2022-07-22T15:13:37;41.10;32.00
33865;DHT22;20159;51.072;13.526;2022-07-22T15:16:03;41.00;31.90
33865;DHT22;20159;51.072;13.526;2022-07-22T15:18:28;41.10;32.10
33865;DHT22;20159;51.072;13.526;2022-07-22T15:20:54;41.20;32.00
33865;DHT22;20159;51.072;13.526;2022-07-22T15:23:21;41.20;31.80
33865;DHT22;20159;51.072;13.526;2022-07-22T15:25:47;41.30;31.70
33865;DHT22;20159;51.072;13.526;2022-07-22T15:28:12;41.40;31.90
33865;DHT22;20159;51.072;13.526;2022-07-22T15:30:38;41.50;31.80
33865;DHT22;20159;51.072;13.526;2022-07-22T15:33:03;41.50;31.50
33865;DHT22;20159;51.072;13.526;2022-07-22T15:35:29;41.50;31.70